sensor_id;sensor_type;location;lat;lon;timestamp;P1;durP1;ratioP1;P2;durP2;ratioP2
15106;SDS011;7654;45.308;-75.096;2023-05-10T00:00:30;0.30;;;0.30;;
15106;SDS011;7654;45.308;-75.096;2023-05-10T00:03:00;0.40;;;0.40;;
15106;SDS011;7654;45.308;-75.096;2023-05-10T00:05:32;0.30;;;0.30;;
15106;SDS011;7654;45.308;-75.096;2023-05-10T00:08:02;0.40;;;0.40;;
15106;SDS011;7654;45.308;-75.096;2023-05-10T00:10:33;0.30;;;0.30;;
15106;SDS011;7654;45.308;-75.096;2023-05-10T00:13:05;0.40;;;0.40;;
15106;SDS011;7654;45.308;-75.096;2023-05-10T00:15:35;0.37;;;0.37;;
15106;SDS011;7654;45.308;-75.096;2023-05-10T00:18:06;0.30;;;0.30;;
15106;SDS011;7654;45.308;-75.096;2023-05-10T00:20:36;0.30;;;0.30;;
15106;SDS011;7654;45.308;-75.096;2023-05-10T00:23:06;0.30;;;0.30;;
15106;SDS011;7654;45.308;-75.096;2023-05-10T00:25:37;0.40;;;0.40;;
15106;SDS011;7654;45.308;-75.096;2023-05-10T00:28:09;0.40;;;0.40;;
15106;SDS011;7654;45.308;-75.096;2023-05-10T00:30:40;0.30;;;0.30;;
15106;SDS011;7654;45.308;-75.096;2023-05-10T00:33:10;0.40;;;0.40;;
15106;SDS011;7654;45.308;-75.096;2023-05-10T00:35:40;0.40;;;0.40;;
15106;SDS011;7654;45.308;-75.096;2023-05-10T00:38:11;0.40;;;0.40;;
15106;SDS011;7654;45.308;-75.096;2023-05-10T00:40:41;0.40;;;0.40;;
15106;SDS011;7654;45.308;-75.096;2023-05-10T00:43:14;0.40;;;0.40;;
15106;SDS011;7654;45.308;-75.096;2023-05-10T00:45:44;0.40;;;0.40;;
15106;SDS011;7654;45.308;-75.096;2023-05-10T00:48:14;0.50;;;0.50;;
15106;SDS011;7654;45.308;-75.096;2023-05-10T00:50:45;0.40;;;0.40;;
15106;SDS011;7654;45.308;-75.096;2023-05-10T00:53:15;0.50;;;0.50;;
15106;SDS011;7654;45.308;-75.096;2023-05-10T00:55:46;0.40;;;0.40;;
15106;SDS011;7654;45.308;-75.096;2023-05-10T00:58:18;0.37;;;0.37;;
15106;SDS011;7654;45.308;-75.096;2023-05-10T01:00:50;0.50;;;0.50;;
15106;SDS011;7654;45.308;-75.096;2023-05-10T01:03:22;0.40;;;0.40;;
15106;SDS011;7654;45.308;-75.096;2023-05-10T01:05:52;0.40;;;0.40;;
15106;SDS011;7654;45.308;-75.096;2023-05-10T01:08:22;0.40;;;0.40;;
15106;SDS011;7654;45.308;-75.096;2023-05-10T01:10:53;0.47;;;0.47;;
15106;SDS011;7654;45.308;-75.096;2023-05-10T01:13:29;0.40;;;0.40;;
15106;SDS011;7654;45.308;-75.096;2023-05-10T01:16:02;0.50;;;0.50;;
15106;SDS011;7654;45.308;-75.096;2023-05-10T01:18:35;0.50;;;0.50;;
15106;SDS011;7654;45.308;-75.096;2023-05-10T01:21:11;0.43;;;0.43;;
15106;SDS011;7654;45.308;-75.096;2023-05-10T01:30:27;0.50;;;0.50;;
15106;SDS011;7654;45.308;-75.096;2023-05-10T01:33:19;0.40;;;0.40;;
15106;SDS011;7654;45.308;-75.096;2023-05-10T01:35:54;0.40;;;0.40;;
15106;SDS011;7654;45.308;-75.096;2023-05-10T01:38:29;0.50;;;0.50;;
15106;SDS011;7654;45.308;-75.096;2023-05-10T01:41:09;0.60;;;0.60;;
15106;SDS011;7654;45.308;-75.096;2023-05-10T01:43:48;0.40;;;0.40;;
15106;SDS011;7654;45.308;-75.096;2023-05-10T01:46:24;0.40;;;0.40;;
15106;SDS011;7654;45.308;-75.096;2023-05-10T01:48:59;0.50;;;0.50;;
15106;SDS011;7654;45.308;-75.096;2023-05-10T01:51:33;0.50;;;0.50;;
15106;SDS011;7654;45.308;-75.096;2023-05-10T01:54:08;0.50;;;0.50;;
15106;SDS011;7654;45.308;-75.096;2023-05-10T01:56:41;0.60;;;0.60;;
15106;SDS011;7654;45.308;-75.096;2023-05-10T01:59:13;0.40;;;0.40;;
15106;SDS011;7654;45.308;-75.096;2023-05-10T02:01:47;0.50;;;0.50;;
15106;SDS011;7654;45.308;-75.096;2023-05-10T02:04:21;0.50;;;0.50;;
15106;SDS011;7654;45.308;-75.096;2023-05-10T02:06:53;0.50;;;0.50;;
15106;SDS011;7654;45.308;-75.096;2023-05-10T02:09:24;0.47;;;0.47;;
15106;SDS011;7654;45.308;-75.096;2023-05-10T02:11:57;0.50;;;0.50;;
15106;SDS011;7654;45.308;-75.096;2023-05-10T02:14:30;0.60;;;0.60;;
15106;SDS011;7654;45.308;-75.096;2023-05-10T02:17:02;0.50;;;0.50;;
15106;SDS011;7654;45.308;-75.096;2023-05-10T02:19:38;0.50;;;0.50;;
15106;SDS011;7654;45.308;-75.096;2023-05-10T02:22:10;0.50;;;0.50;;
15106;SDS011;7654;45.308;-75.096;2023-05-10T02:24:41;0.50;;;0.50;;
15106;SDS011;7654;45.308;-75.096;2023-05-10T02:27:14;0.50;;;0.50;;
15106;SDS011;7654;45.308;-75.096;2023-05-10T02:29:46;0.50;;;0.50;;
15106;SDS011;7654;45.308;-75.096;2023-05-10T02:32:19;0.60;;;0.60;;
15106;SDS011;7654;45.308;-75.096;2023-05-10T02:34:52;0.50;;;0.50;;
15106;SDS011;7654;45.308;-75.096;2023-05-10T02:37:23;0.50;;;0.50;;
15106;SDS011;7654;45.308;-75.096;2023-05-10T02:39:55;0.40;;;0.40;;
15106;SDS011;7654;45.308;-75.096;2023-05-10T02:42:27;0.43;;;0.43;;
15106;SDS011;7654;45.308;-75.096;2023-05-10T02:44:59;0.50;;;0.50;;
15106;SDS011;7654;45.308;-75.096;2023-05-10T02:47:31;0.50;;;0.50;;
15106;SDS011;7654;45.308;-75.096;2023-05-10T02:50:04;0.50;;;0.50;;
15106;SDS011;7654;45.308;-75.096;2023-05-10T02:52:38;0.50;;;0.50;;
15106;SDS011;7654;45.308;-75.096;2023-05-10T02:55:11;0.40;;;0.40;;
15106;SDS011;7654;45.308;-75.096;2023-05-10T02:57:46;0.53;;;0.53;;
15106;SDS011;7654;45.308;-75.096;2023-05-10T03:00:20;0.50;;;0.50;;
15106;SDS011;7654;45.308;-75.096;2023-05-10T03:02:52;0.60;;;0.60;;
15106;SDS011;7654;45.308;-75.096;2023-05-10T03:05:24;0.60;;;0.60;;
15106;SDS011;7654;45.308;-75.096;2023-05-10T03:07:55;0.50;;;0.50;;
15106;SDS011;7654;45.308;-75.096;2023-05-10T03:10:27;0.50;;;0.50;;
15106;SDS011;7654;45.308;-75.096;2023-05-10T03:13:06;0.50;;;0.50;;
15106;SDS011;7654;45.308;-75.096;2023-05-10T03:15:44;0.50;;;0.50;;
15106;SDS011;7654;45.308;-75.096;2023-05-10T03:18:22;0.60;;;0.60;;
15106;SDS011;7654;45.308;-75.096;2023-05-10T03:20:59;0.50;;;0.50;;
15106;SDS011;7654;45.308;-75.096;2023-05-10T03:23:35;0.60;;;0.60;;
15106;SDS011;7654;45.308;-75.096;2023-05-10T03:26:09;0.60;;;0.60;;
15106;SDS011;7654;45.308;-75.096;2023-05-10T03:28:45;0.60;;;0.60;;
15106;SDS011;7654;45.308;-75.096;2023-05-10T03:31:17;0.50;;;0.50;;
15106;SDS011;7654;45.308;-75.096;2023-05-10T03:33:47;0.50;;;0.50;;
15106;SDS011;7654;45.308;-75.096;2023-05-10T03:36:20;0.50;;;0.50;;
15106;SDS011;7654;45.308;-75.096;2023-05-10T03:38:50;0.50;;;0.50;;
15106;SDS011;7654;45.308;-75.096;2023-05-10T03:41:21;0.50;;;0.50;;
15106;SDS011;7654;45.308;-75.096;2023-05-10T03:43:52;0.50;;;0.50;;
15106;SDS011;7654;45.308;-75.096;2023-05-10T03:46:22;0.50;;;0.50;;
15106;SDS011;7654;45.308;-75.096;2023-05-10T03:48:52;0.60;;;0.60;;
15106;SDS011;7654;45.308;-75.096;2023-05-10T03:51:24;0.60;;;0.60;;
15106;SDS011;7654;45.308;-75.096;2023-05-10T03:53:55;0.60;;;0.60;;
15106;SDS011;7654;45.308;-75.096;2023-05-10T03:56:25;0.50;;;0.50;;
15106;SDS011;7654;45.308;-75.096;2023-05-10T03:58:56;0.60;;;0.60;;
15106;SDS011;7654;45.308;-75.096;2023-05-10T04:01:26;0.60;;;0.60;;
15106;SDS011;7654;45.308;-75.096;2023-05-10T04:03:56;0.53;;;0.53;;
15106;SDS011;7654;45.308;-75.096;2023-05-10T04:06:28;0.50;;;0.50;;
15106;SDS011;7654;45.308;-75.096;2023-05-10T04:08:59;0.60;;;0.60;;
15106;SDS011;7654;45.308;-75.096;2023-05-10T04:11:31;0.60;;;0.60;;
15106;SDS011;7654;45.308;-75.096;2023-05-10T04:14:01;0.60;;;0.60;;
15106;SDS011;7654;45.308;-75.096;2023-05-10T04:16:32;0.50;;;0.50;;
15106;SDS011;7654;45.308;-75.096;2023-05-10T04:19:02;0.60;;;0.60;;
15106;SDS011;7654;45.308;-75.096;2023-05-10T04:21:34;0.60;;;0.60;;
15106;SDS011;7654;45.308;-75.096;2023-05-10T04:24:05;0.50;;;0.50;;
15106;SDS011;7654;45.308;-75.096;2023-05-10T04:26:35;0.50;;;0.50;;
15106;SDS011;7654;45.308;-75.096;2023-05-10T04:29:05;0.57;;;0.57;;
15106;SDS011;7654;45.308;-75.096;2023-05-10T04:31:36;0.60;;;0.60;;
15106;SDS011;7654;45.308;-75.096;2023-05-10T04:34:06;0.50;;;0.50;;
15106;SDS011;7654;45.308;-75.096;2023-05-10T04:36:38;0.50;;;0.50;;
15106;SDS011;7654;45.308;-75.096;2023-05-10T04:39:08;0.50;;;0.50;;
15106;SDS011;7654;45.308;-75.096;2023-05-10T04:41:38;0.50;;;0.50;;
15106;SDS011;7654;45.308;-75.096;2023-05-10T04:44:08;0.60;;;0.60;;
15106;SDS011;7654;45.308;-75.096;2023-05-10T04:46:39;0.60;;;0.60;;
15106;SDS011;7654;45.308;-75.096;2023-05-10T04:49:09;0.50;;;0.50;;
15106;SDS011;7654;45.308;-75.096;2023-05-10T04:51:41;0.50;;;0.50;;
15106;SDS011;7654;45.308;-75.096;2023-05-10T04:54:12;0.50;;;0.50;;
15106;SDS011;7654;45.308;-75.096;2023-05-10T04:56:42;0.60;;;0.60;;
15106;SDS011;7654;45.308;-75.096;2023-05-10T04:59:13;0.57;;;0.57;;
15106;SDS011;7654;45.308;-75.096;2023-05-10T05:01:43;0.60;;;0.60;;
15106;SDS011;7654;45.308;-75.096;2023-05-10T05:04:13;0.60;;;0.60;;
15106;SDS011;7654;45.308;-75.096;2023-05-10T05:06:46;0.67;;;0.67;;
15106;SDS011;7654;45.308;-75.096;2023-05-10T05:09:19;0.50;;;0.50;;
15106;SDS011;7654;45.308;-75.096;2023-05-10T05:11:49;0.60;;;0.60;;
15106;SDS011;7654;45.308;-75.096;2023-05-10T05:14:20;0.50;;;0.50;;
15106;SDS011;7654;45.308;-75.096;2023-05-10T05:16:52;0.50;;;0.50;;
15106;SDS011;7654;45.308;-75.096;2023-05-10T05:19:23;0.60;;;0.60;;
15106;SDS011;7654;45.308;-75.096;2023-05-10T05:21:54;0.60;;;0.60;;
15106;SDS011;7654;45.308;-75.096;2023-05-10T05:24:25;0.60;;;0.60;;
15106;SDS011;7654;45.308;-75.096;2023-05-10T05:26:55;0.50;;;0.50;;
15106;SDS011;7654;45.308;-75.096;2023-05-10T05:29:25;0.50;;;0.50;;
15106;SDS011;7654;45.308;-75.096;2023-05-10T05:31:56;0.60;;;0.60;;
15106;SDS011;7654;45.308;-75.096;2023-05-10T05:34:26;0.60;;;0.60;;
15106;SDS011;7654;45.308;-75.096;2023-05-10T05:36:58;0.60;;;0.60;;
15106;SDS011;7654;45.308;-75.096;2023-05-10T05:39:28;0.70;;;0.70;;
15106;SDS011;7654;45.308;-75.096;2023-05-10T05:41:58;0.60;;;0.60;;
15106;SDS011;7654;45.308;-75.096;2023-05-10T05:44:29;0.60;;;0.60;;
15106;SDS011;7654;45.308;-75.096;2023-05-10T05:46:59;0.50;;;0.50;;
15106;SDS011;7654;45.308;-75.096;2023-05-10T05:49:30;0.60;;;0.60;;
15106;SDS011;7654;45.308;-75.096;2023-05-10T05:52:02;0.60;;;0.60;;
15106;SDS011;7654;45.308;-75.096;2023-05-10T05:54:33;0.60;;;0.60;;
15106;SDS011;7654;45.308;-75.096;2023-05-10T05:57:03;0.50;;;0.50;;
15106;SDS011;7654;45.308;-75.096;2023-05-10T05:59:33;0.60;;;0.60;;
15106;SDS011;7654;45.308;-75.096;2023-05-10T06:02:03;0.53;;;0.53;;
15106;SDS011;7654;45.308;-75.096;2023-05-10T06:04:34;0.60;;;0.60;;
15106;SDS011;7654;45.308;-75.096;2023-05-10T06:07:06;0.60;;;0.60;;
15106;SDS011;7654;45.308;-75.096;2023-05-10T06:09:36;0.50;;;0.50;;
15106;SDS011;7654;45.308;-75.096;2023-05-10T06:12:07;0.50;;;0.50;;
15106;SDS011;7654;45.308;-75.096;2023-05-10T06:14:37;0.60;;;0.60;;
15106;SDS011;7654;45.308;-75.096;2023-05-10T06:17:07;0.60;;;0.60;;
15106;SDS011;7654;45.308;-75.096;2023-05-10T06:19:37;0.50;;;0.50;;
15106;SDS011;7654;45.308;-75.096;2023-05-10T06:22:09;0.60;;;0.60;;
15106;SDS011;7654;45.308;-75.096;2023-05-10T06:24:40;0.53;;;0.53;;
15106;SDS011;7654;45.308;-75.096;2023-05-10T06:27:10;0.50;;;0.50;;
15106;SDS011;7654;45.308;-75.096;2023-05-10T06:29:41;0.60;;;0.60;;
15106;SDS011;7654;45.308;-75.096;2023-05-10T06:32:11;0.60;;;0.60;;
15106;SDS011;7654;45.308;-75.096;2023-05-10T06:34:41;0.50;;;0.50;;
15106;SDS011;7654;45.308;-75.096;2023-05-10T06:37:13;0.50;;;0.50;;
15106;SDS011;7654;45.308;-75.096;2023-05-10T06:39:43;0.60;;;0.60;;
15106;SDS011;7654;45.308;-75.096;2023-05-10T06:42:14;0.50;;;0.50;;
15106;SDS011;7654;45.308;-75.096;2023-05-10T06:44:44;0.50;;;0.50;;
15106;SDS011;7654;45.308;-75.096;2023-05-10T06:47:14;0.63;;;0.63;;
15106;SDS011;7654;45.308;-75.096;2023-05-10T06:49:44;0.60;;;0.60;;
15106;SDS011;7654;45.308;-75.096;2023-05-10T06:52:16;0.50;;;0.50;;
15106;SDS011;7654;45.308;-75.096;2023-05-10T06:54:46;0.50;;;0.50;;
15106;SDS011;7654;45.308;-75.096;2023-05-10T06:57:17;0.50;;;0.50;;
15106;SDS011;7654;45.308;-75.096;2023-05-10T06:59:57;0.60;;;0.60;;
15106;SDS011;7654;45.308;-75.096;2023-05-10T07:02:28;0.60;;;0.60;;
15106;SDS011;7654;45.308;-75.096;2023-05-10T07:04:58;0.60;;;0.60;;
15106;SDS011;7654;45.308;-75.096;2023-05-10T07:07:31;0.50;;;0.50;;
15106;SDS011;7654;45.308;-75.096;2023-05-10T07:10:01;0.50;;;0.50;;
15106;SDS011;7654;45.308;-75.096;2023-05-10T07:12:31;0.57;;;0.57;;
15106;SDS011;7654;45.308;-75.096;2023-05-10T07:15:01;0.60;;;0.60;;
15106;SDS011;7654;45.308;-75.096;2023-05-10T07:17:32;0.50;;;0.50;;
15106;SDS011;7654;45.308;-75.096;2023-05-10T07:20:02;0.60;;;0.60;;
15106;SDS011;7654;45.308;-75.096;2023-05-10T07:22:35;0.60;;;0.60;;
15106;SDS011;7654;45.308;-75.096;2023-05-10T07:25:06;0.50;;;0.50;;
15106;SDS011;7654;45.308;-75.096;2023-05-10T07:27:37;0.50;;;0.50;;
15106;SDS011;7654;45.308;-75.096;2023-05-10T07:30:07;0.60;;;0.60;;
15106;SDS011;7654;45.308;-75.096;2023-05-10T07:32:38;0.60;;;0.60;;
15106;SDS011;7654;45.308;-75.096;2023-05-10T07:35:09;0.50;;;0.50;;
15106;SDS011;7654;45.308;-75.096;2023-05-10T07:37:41;0.60;;;0.60;;
15106;SDS011;7654;45.308;-75.096;2023-05-10T07:40:11;0.60;;;0.60;;
15106;SDS011;7654;45.308;-75.096;2023-05-10T07:42:41;0.60;;;0.60;;
15106;SDS011;7654;45.308;-75.096;2023-05-10T07:45:12;0.60;;;0.60;;
15106;SDS011;7654;45.308;-75.096;2023-05-10T07:47:42;0.60;;;0.60;;
15106;SDS011;7654;45.308;-75.096;2023-05-10T07:50:13;0.60;;;0.60;;
15106;SDS011;7654;45.308;-75.096;2023-05-10T07:52:45;0.60;;;0.60;;
15106;SDS011;7654;45.308;-75.096;2023-05-10T07:55:15;0.50;;;0.50;;
15106;SDS011;7654;45.308;-75.096;2023-05-10T07:57:47;0.60;;;0.60;;
15106;SDS011;7654;45.308;-75.096;2023-05-10T08:00:17;0.50;;;0.50;;
15106;SDS011;7654;45.308;-75.096;2023-05-10T08:02:48;0.60;;;0.60;;
15106;SDS011;7654;45.308;-75.096;2023-05-10T08:05:18;0.50;;;0.50;;
15106;SDS011;7654;45.308;-75.096;2023-05-10T08:07:50;0.60;;;0.60;;
15106;SDS011;7654;45.308;-75.096;2023-05-10T08:10:21;0.50;;;0.50;;
15106;SDS011;7654;45.308;-75.096;2023-05-10T08:12:51;0.50;;;0.50;;
15106;SDS011;7654;45.308;-75.096;2023-05-10T08:15:21;0.60;;;0.60;;
15106;SDS011;7654;45.308;-75.096;2023-05-10T08:17:51;0.60;;;0.60;;
15106;SDS011;7654;45.308;-75.096;2023-05-10T08:20:22;0.50;;;0.50;;
15106;SDS011;7654;45.308;-75.096;2023-05-10T08:22:54;0.50;;;0.50;;
15106;SDS011;7654;45.308;-75.096;2023-05-10T08:25:25;0.70;;;0.70;;
15106;SDS011;7654;45.308;-75.096;2023-05-10T08:27:55;0.50;;;0.50;;
15106;SDS011;7654;45.308;-75.096;2023-05-10T08:30:25;0.60;;;0.60;;
15106;SDS011;7654;45.308;-75.096;2023-05-10T08:32:55;0.60;;;0.60;;
15106;SDS011;7654;45.308;-75.096;2023-05-10T08:35:26;0.50;;;0.50;;
15106;SDS011;7654;45.308;-75.096;2023-05-10T08:37:58;0.60;;;0.60;;
15106;SDS011;7654;45.308;-75.096;2023-05-10T08:40:28;0.50;;;0.50;;
15106;SDS011;7654;45.308;-75.096;2023-05-10T08:42:58;0.60;;;0.60;;
15106;SDS011;7654;45.308;-75.096;2023-05-10T08:45:36;0.50;;;0.50;;
15106;SDS011;7654;45.308;-75.096;2023-05-10T08:48:08;0.50;;;0.50;;
15106;SDS011;7654;45.308;-75.096;2023-05-10T08:50:40;0.50;;;0.50;;
15106;SDS011;7654;45.308;-75.096;2023-05-10T08:53:13;0.50;;;0.50;;
15106;SDS011;7654;45.308;-75.096;2023-05-10T08:55:45;0.60;;;0.60;;
15106;SDS011;7654;45.308;-75.096;2023-05-10T08:58:16;0.50;;;0.50;;
15106;SDS011;7654;45.308;-75.096;2023-05-10T09:00:48;0.50;;;0.50;;
15106;SDS011;7654;45.308;-75.096;2023-05-10T09:03:19;0.60;;;0.60;;
15106;SDS011;7654;45.308;-75.096;2023-05-10T09:05:50;0.50;;;0.50;;
15106;SDS011;7654;45.308;-75.096;2023-05-10T09:08:22;0.60;;;0.60;;
15106;SDS011;7654;45.308;-75.096;2023-05-10T09:10:54;0.50;;;0.50;;
15106;SDS011;7654;45.308;-75.096;2023-05-10T09:13:24;0.57;;;0.57;;
15106;SDS011;7654;45.308;-75.096;2023-05-10T09:15:54;0.50;;;0.50;;
15106;SDS011;7654;45.308;-75.096;2023-05-10T09:18:35;0.60;;;0.60;;
15106;SDS011;7654;45.308;-75.096;2023-05-10T09:21:06;0.50;;;0.50;;
15106;SDS011;7654;45.308;-75.096;2023-05-10T09:23:38;0.50;;;0.50;;
15106;SDS011;7654;45.308;-75.096;2023-05-10T09:26:14;0.60;;;0.60;;
15106;SDS011;7654;45.308;-75.096;2023-05-10T09:28:51;0.60;;;0.60;;
15106;SDS011;7654;45.308;-75.096;2023-05-10T09:31:22;0.50;;;0.50;;
15106;SDS011;7654;45.308;-75.096;2023-05-10T09:33:53;0.60;;;0.60;;
15106;SDS011;7654;45.308;-75.096;2023-05-10T09:36:24;0.53;;;0.53;;
15106;SDS011;7654;45.308;-75.096;2023-05-10T09:38:56;0.60;;;0.60;;
15106;SDS011;7654;45.308;-75.096;2023-05-10T09:41:27;0.60;;;0.60;;
15106;SDS011;7654;45.308;-75.096;2023-05-10T09:43:57;0.50;;;0.50;;
15106;SDS011;7654;45.308;-75.096;2023-05-10T09:46:27;0.60;;;0.60;;
15106;SDS011;7654;45.308;-75.096;2023-05-10T09:48:57;0.50;;;0.50;;
15106;SDS011;7654;45.308;-75.096;2023-05-10T09:51:28;0.60;;;0.60;;
15106;SDS011;7654;45.308;-75.096;2023-05-10T09:54:13;0.50;;;0.50;;
15106;SDS011;7654;45.308;-75.096;2023-05-10T09:56:43;0.60;;;0.60;;
15106;SDS011;7654;45.308;-75.096;2023-05-10T09:59:14;0.60;;;0.60;;
15106;SDS011;7654;45.308;-75.096;2023-05-10T10:01:48;0.50;;;0.50;;
15106;SDS011;7654;45.308;-75.096;2023-05-10T10:04:19;0.60;;;0.60;;
15106;SDS011;7654;45.308;-75.096;2023-05-10T10:07:00;0.50;;;0.50;;
15106;SDS011;7654;45.308;-75.096;2023-05-10T10:09:33;0.50;;;0.50;;
15106;SDS011;7654;45.308;-75.096;2023-05-10T10:12:03;0.60;;;0.60;;
15106;SDS011;7654;45.308;-75.096;2023-05-10T10:14:34;0.50;;;0.50;;
15106;SDS011;7654;45.308;-75.096;2023-05-10T10:17:04;0.60;;;0.60;;
15106;SDS011;7654;45.308;-75.096;2023-05-10T10:19:35;0.50;;;0.50;;
15106;SDS011;7654;45.308;-75.096;2023-05-10T10:22:05;0.60;;;0.60;;
15106;SDS011;7654;45.308;-75.096;2023-05-10T10:24:39;0.50;;;0.50;;
15106;SDS011;7654;45.308;-75.096;2023-05-10T10:27:14;0.60;;;0.60;;
15106;SDS011;7654;45.308;-75.096;2023-05-10T10:29:58;0.53;;;0.53;;
15106;SDS011;7654;45.308;-75.096;2023-05-10T10:32:35;0.50;;;0.50;;
15106;SDS011;7654;45.308;-75.096;2023-05-10T10:35:14;0.50;;;0.50;;
15106;SDS011;7654;45.308;-75.096;2023-05-10T10:37:45;0.60;;;0.60;;
15106;SDS011;7654;45.308;-75.096;2023-05-10T10:40:25;0.50;;;0.50;;
15106;SDS011;7654;45.308;-75.096;2023-05-10T10:48:50;0.50;;;0.50;;
15106;SDS011;7654;45.308;-75.096;2023-05-10T10:51:37;0.50;;;0.50;;
15106;SDS011;7654;45.308;-75.096;2023-05-10T10:54:11;0.50;;;0.50;;
15106;SDS011;7654;45.308;-75.096;2023-05-10T10:56:43;0.57;;;0.57;;
15106;SDS011;7654;45.308;-75.096;2023-05-10T10:59:34;0.50;;;0.50;;
15106;SDS011;7654;45.308;-75.096;2023-05-10T11:02:04;0.50;;;0.50;;
15106;SDS011;7654;45.308;-75.096;2023-05-10T11:04:42;0.60;;;0.60;;
15106;SDS011;7654;45.308;-75.096;2023-05-10T11:07:16;0.60;;;0.60;;
15106;SDS011;7654;45.308;-75.096;2023-05-10T11:09:47;0.50;;;0.50;;
15106;SDS011;7654;45.308;-75.096;2023-05-10T11:12:19;0.60;;;0.60;;
15106;SDS011;7654;45.308;-75.096;2023-05-10T11:14:50;0.50;;;0.50;;
15106;SDS011;7654;45.308;-75.096;2023-05-10T11:17:23;0.60;;;0.60;;
15106;SDS011;7654;45.308;-75.096;2023-05-10T11:20:03;0.50;;;0.50;;
15106;SDS011;7654;45.308;-75.096;2023-05-10T11:22:49;0.40;;;0.40;;
15106;SDS011;7654;45.308;-75.096;2023-05-10T11:25:20;0.60;;;0.60;;
15106;SDS011;7654;45.308;-75.096;2023-05-10T11:27:57;0.60;;;0.60;;
15106;SDS011;7654;45.308;-75.096;2023-05-10T11:30:31;0.53;;;0.53;;
15106;SDS011;7654;45.308;-75.096;2023-05-10T11:33:02;0.50;;;0.50;;
15106;SDS011;7654;45.308;-75.096;2023-05-10T11:35:36;0.50;;;0.50;;
15106;SDS011;7654;45.308;-75.096;2023-05-10T11:38:09;0.53;;;0.53;;
15106;SDS011;7654;45.308;-75.096;2023-05-10T11:40:40;0.50;;;0.50;;
15106;SDS011;7654;45.308;-75.096;2023-05-10T11:43:12;0.57;;;0.57;;
15106;SDS011;7654;45.308;-75.096;2023-05-10T11:45:43;0.40;;;0.40;;
15106;SDS011;7654;45.308;-75.096;2023-05-10T11:48:15;0.50;;;0.50;;
15106;SDS011;7654;45.308;-75.096;2023-05-10T11:50:49;0.50;;;0.50;;
15106;SDS011;7654;45.308;-75.096;2023-05-10T11:53:20;0.50;;;0.50;;
15106;SDS011;7654;45.308;-75.096;2023-05-10T11:55:51;0.50;;;0.50;;
15106;SDS011;7654;45.308;-75.096;2023-05-10T11:58:23;0.50;;;0.50;;
15106;SDS011;7654;45.308;-75.096;2023-05-10T12:00:53;0.50;;;0.50;;
15106;SDS011;7654;45.308;-75.096;2023-05-10T12:03:24;0.50;;;0.50;;
15106;SDS011;7654;45.308;-75.096;2023-05-10T12:05:55;0.50;;;0.50;;
15106;SDS011;7654;45.308;-75.096;2023-05-10T12:08:27;0.50;;;0.50;;
15106;SDS011;7654;45.308;-75.096;2023-05-10T12:11:05;0.50;;;0.50;;
15106;SDS011;7654;45.308;-75.096;2023-05-10T12:13:39;0.50;;;0.50;;
15106;SDS011;7654;45.308;-75.096;2023-05-10T12:16:13;0.40;;;0.40;;
15106;SDS011;7654;45.308;-75.096;2023-05-10T12:18:45;0.50;;;0.50;;
15106;SDS011;7654;45.308;-75.096;2023-05-10T12:21:18;0.50;;;0.50;;
15106;SDS011;7654;45.308;-75.096;2023-05-10T12:23:50;0.50;;;0.50;;
15106;SDS011;7654;45.308;-75.096;2023-05-10T12:26:22;0.50;;;0.50;;
15106;SDS011;7654;45.308;-75.096;2023-05-10T12:28:55;0.50;;;0.50;;
15106;SDS011;7654;45.308;-75.096;2023-05-10T12:31:53;0.50;;;0.50;;
15106;SDS011;7654;45.308;-75.096;2023-05-10T12:34:25;0.50;;;0.50;;
15106;SDS011;7654;45.308;-75.096;2023-05-10T12:36:55;0.40;;;0.40;;
15106;SDS011;7654;45.308;-75.096;2023-05-10T12:39:26;0.50;;;0.50;;
15106;SDS011;7654;45.308;-75.096;2023-05-10T12:42:08;0.50;;;0.50;;
15106;SDS011;7654;45.308;-75.096;2023-05-10T12:44:40;0.40;;;0.40;;
15106;SDS011;7654;45.308;-75.096;2023-05-10T12:47:10;0.40;;;0.40;;
15106;SDS011;7654;45.308;-75.096;2023-05-10T12:49:40;0.50;;;0.50;;
15106;SDS011;7654;45.308;-75.096;2023-05-10T12:52:10;0.40;;;0.40;;
15106;SDS011;7654;45.308;-75.096;2023-05-10T12:54:41;0.40;;;0.40;;
15106;SDS011;7654;45.308;-75.096;2023-05-10T12:57:12;0.50;;;0.50;;
15106;SDS011;7654;45.308;-75.096;2023-05-10T12:59:44;0.40;;;0.40;;
15106;SDS011;7654;45.308;-75.096;2023-05-10T13:02:15;0.50;;;0.50;;
15106;SDS011;7654;45.308;-75.096;2023-05-10T13:04:46;0.47;;;0.47;;
15106;SDS011;7654;45.308;-75.096;2023-05-10T13:07:17;0.50;;;0.50;;
15106;SDS011;7654;45.308;-75.096;2023-05-10T13:09:47;0.40;;;0.40;;
15106;SDS011;7654;45.308;-75.096;2023-05-10T13:12:17;0.40;;;0.40;;
15106;SDS011;7654;45.308;-75.096;2023-05-10T13:14:49;0.40;;;0.40;;
15106;SDS011;7654;45.308;-75.096;2023-05-10T13:17:19;0.40;;;0.40;;
15106;SDS011;7654;45.308;-75.096;2023-05-10T13:19:51;0.40;;;0.40;;
15106;SDS011;7654;45.308;-75.096;2023-05-10T13:22:21;0.40;;;0.40;;
15106;SDS011;7654;45.308;-75.096;2023-05-10T13:25:06;0.40;;;0.40;;
15106;SDS011;7654;45.308;-75.096;2023-05-10T13:27:38;0.40;;;0.40;;
15106;SDS011;7654;45.308;-75.096;2023-05-10T13:30:10;0.40;;;0.40;;
15106;SDS011;7654;45.308;-75.096;2023-05-10T13:32:41;0.40;;;0.40;;
15106;SDS011;7654;45.308;-75.096;2023-05-10T13:35:11;0.40;;;0.40;;
15106;SDS011;7654;45.308;-75.096;2023-05-10T13:37:41;0.30;;;0.30;;
15106;SDS011;7654;45.308;-75.096;2023-05-10T13:40:12;0.37;;;0.37;;
15106;SDS011;7654;45.308;-75.096;2023-05-10T13:42:43;0.40;;;0.40;;
15106;SDS011;7654;45.308;-75.096;2023-05-10T13:45:15;0.40;;;0.40;;
15106;SDS011;7654;45.308;-75.096;2023-05-10T13:47:45;0.40;;;0.40;;
15106;SDS011;7654;45.308;-75.096;2023-05-10T13:50:16;0.40;;;0.40;;
15106;SDS011;7654;45.308;-75.096;2023-05-10T13:52:46;0.30;;;0.30;;
15106;SDS011;7654;45.308;-75.096;2023-05-10T13:55:19;0.40;;;0.40;;
15106;SDS011;7654;45.308;-75.096;2023-05-10T13:57:49;0.40;;;0.40;;
15106;SDS011;7654;45.308;-75.096;2023-05-10T14:00:21;0.30;;;0.30;;
15106;SDS011;7654;45.308;-75.096;2023-05-10T14:02:51;0.40;;;0.40;;
15106;SDS011;7654;45.308;-75.096;2023-05-10T14:05:22;0.40;;;0.40;;
15106;SDS011;7654;45.308;-75.096;2023-05-10T14:07:52;0.40;;;0.40;;
15106;SDS011;7654;45.308;-75.096;2023-05-10T14:10:22;0.30;;;0.30;;
15106;SDS011;7654;45.308;-75.096;2023-05-10T14:12:52;0.30;;;0.30;;
15106;SDS011;7654;45.308;-75.096;2023-05-10T14:15:25;0.30;;;0.30;;
15106;SDS011;7654;45.308;-75.096;2023-05-10T14:17:55;0.33;;;0.33;;
15106;SDS011;7654;45.308;-75.096;2023-05-10T14:20:25;0.30;;;0.30;;
15106;SDS011;7654;45.308;-75.096;2023-05-10T14:22:56;0.37;;;0.37;;
15106;SDS011;7654;45.308;-75.096;2023-05-10T14:25:26;0.30;;;0.30;;
15106;SDS011;7654;45.308;-75.096;2023-05-10T14:27:56;0.30;;;0.30;;
15106;SDS011;7654;45.308;-75.096;2023-05-10T14:30:28;0.30;;;0.30;;
15106;SDS011;7654;45.308;-75.096;2023-05-10T14:32:59;0.30;;;0.30;;
15106;SDS011;7654;45.308;-75.096;2023-05-10T14:35:29;0.30;;;0.30;;
15106;SDS011;7654;45.308;-75.096;2023-05-10T14:38:00;0.30;;;0.30;;
15106;SDS011;7654;45.308;-75.096;2023-05-10T14:40:31;0.20;;;0.20;;
15106;SDS011;7654;45.308;-75.096;2023-05-10T14:43:01;0.23;;;0.23;;
15106;SDS011;7654;45.308;-75.096;2023-05-10T14:45:33;0.20;;;0.20;;
15106;SDS011;7654;45.308;-75.096;2023-05-10T14:48:04;0.30;;;0.30;;
15106;SDS011;7654;45.308;-75.096;2023-05-10T14:50:38;0.30;;;0.30;;
15106;SDS011;7654;45.308;-75.096;2023-05-10T14:53:08;0.30;;;0.30;;
15106;SDS011;7654;45.308;-75.096;2023-05-10T14:55:39;0.20;;;0.20;;
15106;SDS011;7654;45.308;-75.096;2023-05-10T14:58:09;0.30;;;0.30;;
15106;SDS011;7654;45.308;-75.096;2023-05-10T15:00:41;0.30;;;0.30;;
15106;SDS011;7654;45.308;-75.096;2023-05-10T15:03:12;0.30;;;0.30;;
15106;SDS011;7654;45.308;-75.096;2023-05-10T15:05:43;0.30;;;0.30;;
15106;SDS011;7654;45.308;-75.096;2023-05-10T15:08:13;0.30;;;0.30;;
15106;SDS011;7654;45.308;-75.096;2023-05-10T15:10:43;0.30;;;0.30;;
15106;SDS011;7654;45.308;-75.096;2023-05-10T15:13:13;0.30;;;0.30;;